createdAt,value
2019-04-23T00:01:35.365Z,2.90
2019-04-23T00:04:03.769Z,2.90
2019-04-23T00:06:34.306Z,2.67
2019-04-23T00:09:15.750Z,2.47
2019-04-23T00:14:11.556Z,2.70
2019-04-23T00:16:38.202Z,2.80
2019-04-23T00:19:12.014Z,2.63
2019-04-23T00:22:13.305Z,2.70
2019-04-23T00:25:21.894Z,3.53
2019-04-23T00:32:23.737Z,2.87
2019-04-23T00:37:25.654Z,3.00
2019-04-23T00:44:54.296Z,2.70
2019-04-23T00:47:25.559Z,2.73
2019-04-23T00:50:04.310Z,3.07
2019-04-23T00:52:30.474Z,3.17
2019-04-23T00:55:09.984Z,2.97
2019-04-23T00:57:29.037Z,3.23
2019-04-23T01:00:03.523Z,3.00
2019-04-23T01:02:31.091Z,3.30
2019-04-23T01:05:03.620Z,3.87
2019-04-23T01:07:34.904Z,2.87
2019-04-23T01:15:10.283Z,2.80
2019-04-23T01:17:49.147Z,2.83
2019-04-23T01:20:39.132Z,3.47
2019-04-23T01:22:44.311Z,3.40
2019-04-23T01:25:30.380Z,3.37
2019-04-23T01:28:23.529Z,3.07
2019-04-23T01:30:59.142Z,4.07
2019-04-23T01:33:29.670Z,3.53
2019-04-23T01:38:27.930Z,3.37
2019-04-23T01:40:53.871Z,3.60
2019-04-23T01:43:30.202Z,3.90
2019-04-23T01:45:54.704Z,3.23
2019-04-23T01:48:30.003Z,3.40
2019-04-23T01:50:56.241Z,3.10
2019-04-23T01:53:37.140Z,3.90
2019-04-23T01:56:19.809Z,3.47
2019-04-23T02:01:07.147Z,3.43
2019-04-23T02:06:07.430Z,3.53
2019-04-23T02:08:41.699Z,4.07
2019-04-23T02:11:10.304Z,3.90
2019-04-23T02:13:42.061Z,4.03
2019-04-23T02:16:12.060Z,4.30
2019-04-23T02:18:45.505Z,3.63
2019-04-23T02:21:15.019Z,3.33
2019-04-23T02:23:48.985Z,3.80
2019-04-23T02:26:27.722Z,3.73
2019-04-23T02:31:46.639Z,4.20
2019-04-23T02:34:05.975Z,4.70
2019-04-23T02:36:32.320Z,4.10
2019-04-23T02:38:56.345Z,4.50
2019-04-23T02:41:47.039Z,4.17
2019-04-23T02:44:11.497Z,4.50
2019-04-23T02:46:36.155Z,4.53
2019-04-23T02:54:16.380Z,4.47
2019-04-23T03:02:05.765Z,5.07
2019-04-23T03:04:21.974Z,4.60
2019-04-23T03:06:56.449Z,5.07
2019-04-23T03:09:22.907Z,4.87
2019-04-23T03:14:18.705Z,4.33
2019-04-23T03:23:03.194Z,4.53
2019-04-23T03:25:45.858Z,5.40
2019-04-23T03:28:11.731Z,4.87
2019-04-23T03:38:45.753Z,5.00
2019-04-23T03:41:18.325Z,4.70
2019-04-23T03:46:11.851Z,4.80
2019-04-23T03:48:34.083Z,5.20
2019-04-23T03:50:58.654Z,5.03
2019-04-23T03:56:07.959Z,5.17
2019-04-23T04:01:06.769Z,5.03
2019-04-23T04:06:11.352Z,5.27
2019-04-23T04:09:00.618Z,5.20
2019-04-23T04:18:44.455Z,5.47
2019-04-23T04:21:14.507Z,5.33
2019-04-23T04:23:51.422Z,4.80
2019-04-23T04:26:17.875Z,5.30
2019-04-23T04:28:48.629Z,5.30
2019-04-23T04:31:18.749Z,4.97
2019-04-23T04:33:58.620Z,4.57
2019-04-23T12:11:53.837Z,5.37
2019-04-23T12:22:07.882Z,5.75
2019-04-23T12:25:03.533Z,6.50
2019-04-23T12:27:14.093Z,5.67
2019-04-23T12:32:43.057Z,5.67
2019-04-23T12:37:56.253Z,5.37
2019-04-23T12:40:24.778Z,5.35
2019-04-23T12:45:26.835Z,5.12
2019-04-23T13:02:59.016Z,5.65
2019-04-23T13:05:31.824Z,4.92
2019-04-23T13:08:02.086Z,4.62
2019-04-23T13:10:32.319Z,5.28
2019-04-23T13:15:34.563Z,5.22
2019-04-23T13:18:27.277Z,5.42
2019-04-23T13:25:53.909Z,5.75
2019-04-23T13:28:21.164Z,5.47
2019-04-23T13:33:34.742Z,5.50
2019-04-23T13:36:03.371Z,4.90
2019-04-23T13:38:35.074Z,5.58
2019-04-23T13:41:01.449Z,5.28
2019-04-23T13:43:38.041Z,6.47
2019-04-23T13:46:14.057Z,5.00
2019-04-23T13:53:40.558Z,5.37
2019-04-23T13:56:05.829Z,5.35
2019-04-23T13:58:34.501Z,5.20
2019-04-23T14:01:18.184Z,5.40
2019-04-23T14:03:41.262Z,4.90
2019-04-23T14:06:18.386Z,5.15
2019-04-23T14:08:47.002Z,5.25
2019-04-23T14:13:52.192Z,6.05
2019-04-23T14:16:23.436Z,6.70
2019-04-23T14:18:55.921Z,5.05
2019-04-23T14:21:23.318Z,5.45
2019-04-23T14:26:24.937Z,6.05
2019-04-23T14:28:44.549Z,6.03
2019-04-23T14:31:17.317Z,4.97
2019-04-23T14:34:03.571Z,6.15
2019-04-23T14:36:25.467Z,4.75
2019-04-23T14:39:06.512Z,4.97
2019-04-23T14:41:31.063Z,4.83
2019-04-23T14:44:11.387Z,5.20
2019-04-23T14:49:16.164Z,4.42
2019-04-23T14:54:24.761Z,6.03
2019-04-23T14:56:56.900Z,5.40
2019-04-23T14:59:11.042Z,5.35
2019-04-23T15:01:48.924Z,5.72
2019-04-23T15:04:24.686Z,5.05
2019-04-23T15:09:27.616Z,5.28
2019-04-23T15:12:06.160Z,5.42
2019-04-23T15:14:23.466Z,5.25
2019-04-23T15:17:00.089Z,4.78
2019-04-23T15:22:08.338Z,5.10
2019-04-23T15:24:37.623Z,4.78
2019-04-23T15:29:27.987Z,4.90
2019-04-23T15:32:07.785Z,4.83
2019-04-23T15:34:36.855Z,5.55
2019-04-23T15:37:32.563Z,5.65
2019-04-23T15:39:46.479Z,4.72
2019-04-23T15:42:16.793Z,5.12
2019-04-23T15:44:48.924Z,4.83
2019-04-23T15:49:53.190Z,5.25
2019-04-23T15:52:19.202Z,5.53
2019-04-23T15:54:54.935Z,5.40
2019-04-23T15:57:41.705Z,5.33
2019-04-23T15:59:55.906Z,5.33
2019-04-23T16:01:56.394Z,5.28
2019-04-23T16:04:25.572Z,5.42
2019-04-23T16:06:55.970Z,5.22
2019-04-23T16:10:01.259Z,5.05
2019-04-23T16:12:17.633Z,5.37
2019-04-23T16:17:28.892Z,5.47
2019-04-23T16:20:25.530Z,4.90
2019-04-23T16:22:39.578Z,5.45
2019-04-23T16:25:12.731Z,5.50
2019-04-23T16:27:49.016Z,5.60
2019-04-23T16:33:08.733Z,4.90
2019-04-23T16:36:08.795Z,5.50
2019-04-23T16:41:07.244Z,5.85
2019-04-23T16:43:33.818Z,5.50
2019-04-23T16:46:09.720Z,5.08
2019-04-23T16:48:58.371Z,5.55
2019-04-23T16:51:16.614Z,4.92
2019-04-23T16:53:30.189Z,6.33
2019-04-23T16:56:16.663Z,6.45
2019-04-23T16:58:48.876Z,5.47
2019-04-23T17:08:57.155Z,5.08
2019-04-23T17:13:52.084Z,5.15
2019-04-23T17:21:18.158Z,4.42
2019-04-23T17:24:05.768Z,5.42
2019-04-23T17:26:25.620Z,4.53
2019-04-23T17:29:00.402Z,4.55
2019-04-23T17:34:02.537Z,5.05
2019-04-23T17:36:38.062Z,5.80
2019-04-23T17:39:22.568Z,4.83
2019-04-23T17:42:12.539Z,5.70
2019-04-23T17:44:48.409Z,4.70
2019-04-23T17:47:30.055Z,5.60
2019-04-23T17:50:05.624Z,4.47
2019-04-23T17:52:34.909Z,4.50
2019-04-23T17:55:07.053Z,5.53
2019-04-23T18:00:18.935Z,4.60
2019-04-23T18:05:12.941Z,5.05
2019-04-23T18:10:24.344Z,5.47
2019-04-23T18:12:45.320Z,6.03
2019-04-23T18:15:13.129Z,6.03
2019-04-23T18:17:43.457Z,6.60
2019-04-23T18:20:29.990Z,6.77
2019-04-23T18:23:06.652Z,5.90
2019-04-23T18:28:19.945Z,5.20
2019-04-23T18:34:01.867Z,4.67
2019-04-23T18:36:16.632Z,5.37
2019-04-23T18:38:54.604Z,4.93
2019-04-23T18:41:13.756Z,4.90
2019-04-23T18:43:51.023Z,5.40
2019-04-23T18:48:53.132Z,4.47
2019-04-23T18:51:27.146Z,4.83
2019-04-23T18:54:07.427Z,4.90
2019-04-23T18:56:23.426Z,5.20
2019-04-23T18:59:04.824Z,4.67
2019-04-23T19:01:31.071Z,5.00
2019-04-23T19:06:47.364Z,4.57
2019-04-23T19:13:04.265Z,4.97
2019-04-23T19:20:45.149Z,5.17
2019-04-23T19:23:08.299Z,4.77
2019-04-23T19:25:31.874Z,4.60
2019-04-23T19:28:07.583Z,4.93
2019-04-23T19:33:29.236Z,4.73
2019-04-23T19:36:05.474Z,4.87
2019-04-23T19:38:28.844Z,4.77
2019-04-23T19:40:56.671Z,4.80
2019-04-23T19:46:02.124Z,5.47
2019-04-23T19:48:30.352Z,5.60
2019-04-23T19:51:03.153Z,5.57
2019-04-23T20:03:43.790Z,5.00
2019-04-23T20:06:15.031Z,5.67
2019-04-23T20:13:50.684Z,5.20
2019-04-23T20:18:50.821Z,5.23
2019-04-23T20:21:08.322Z,5.83
2019-04-23T20:24:04.520Z,5.50
2019-04-23T20:29:36.061Z,5.20
2019-04-23T20:34:51.567Z,5.57
2019-04-23T20:36:53.280Z,6.03
2019-04-23T20:39:33.024Z,5.53
2019-04-23T20:44:39.479Z,5.70
2019-04-23T20:47:06.302Z,5.90
2019-04-23T20:50:03.712Z,4.90
2019-04-23T20:52:06.286Z,4.77
2019-04-23T20:57:30.914Z,5.07
2019-04-23T21:00:01.806Z,5.17
2019-04-23T21:03:05.319Z,5.20
2019-04-23T21:07:54.146Z,4.60
2019-04-23T21:10:30.702Z,6.07
2019-04-23T21:13:01.187Z,5.10
2019-04-23T21:20:26.316Z,4.10
2019-04-23T21:22:57.247Z,4.57
2019-04-23T21:25:27.253Z,4.40
2019-04-23T21:28:06.261Z,4.33
2019-04-23T21:30:58.591Z,5.20
2019-04-23T21:33:11.597Z,5.00
2019-04-23T21:38:46.398Z,4.50
2019-04-23T21:41:29.425Z,4.73
2019-04-23T21:46:22.169Z,3.87
2019-04-23T21:49:08.671Z,4.50
2019-04-23T21:51:41.914Z,4.20
2019-04-23T21:53:51.620Z,5.23
2019-04-23T21:56:21.586Z,4.50
2019-04-23T21:58:57.981Z,4.27
2019-04-23T22:04:08.515Z,4.53
2019-04-23T22:11:48.215Z,4.27
2019-04-23T22:16:41.071Z,4.83
2019-04-23T22:19:12.689Z,4.83
2019-04-23T22:21:43.035Z,4.10
2019-04-23T22:26:36.283Z,4.77
2019-04-23T22:34:17.870Z,4.33
2019-04-23T22:36:39.392Z,4.93
2019-04-23T22:39:11.634Z,4.60
2019-04-23T22:41:49.086Z,4.60
2019-04-23T22:44:12.219Z,4.50
2019-04-23T22:46:52.479Z,4.80
2019-04-23T22:51:55.435Z,4.50
2019-04-23T22:54:13.877Z,4.57
2019-04-23T22:56:54.989Z,4.73
2019-04-23T23:02:11.027Z,4.27
2019-04-23T23:04:44.369Z,4.80
2019-04-23T23:07:07.614Z,4.33
2019-04-23T23:09:43.881Z,4.57
2019-04-23T23:12:13.902Z,5.10
2019-04-23T23:14:46.014Z,4.63
2019-04-23T23:17:11.441Z,4.37
2019-04-23T23:19:49.351Z,5.13
2019-04-23T23:22:11.940Z,5.10
2019-04-23T23:24:46.497Z,5.07
2019-04-23T23:27:29.985Z,5.00
2019-04-23T23:30:00.028Z,4.47
2019-04-23T23:38:13.611Z,5.10
2019-04-23T23:39:58.356Z,5.13
2019-04-23T23:42:28.181Z,5.23
2019-04-23T23:45:02.142Z,5.23
2019-04-23T23:47:39.533Z,4.77
2019-04-23T23:50:01.078Z,4.77
2019-04-23T23:52:34.962Z,5.60
2019-04-23T23:55:01.768Z,4.87
2019-04-23T23:57:24.694Z,5.17
